createdAt,value
2023-02-11T00:01:24.367Z,10.45
2023-02-11T00:03:51.154Z,10.20
2023-02-11T00:06:18.005Z,10.30
2023-02-11T00:08:44.694Z,10.65
2023-02-11T00:11:17.196Z,11.70
2023-02-11T00:13:44.824Z,10.60
2023-02-11T00:16:15.461Z,9.98
2023-02-11T00:18:42.009Z,11.48
2023-02-11T00:21:14.656Z,10.70
2023-02-11T00:23:41.788Z,10.27
2023-02-11T00:26:29.626Z,9.93
2023-02-11T00:31:24.451Z,9.93
2023-02-11T00:33:51.462Z,10.20
2023-02-11T00:36:26.166Z,9.73
2023-02-11T00:38:54.045Z,9.82
2023-02-11T00:41:21.443Z,9.95
2023-02-11T00:43:48.690Z,9.77
2023-02-11T00:46:16.058Z,9.95
2023-02-11T00:48:42.957Z,9.80
2023-02-11T00:51:09.513Z,8.20
2023-02-11T00:53:36.152Z,10.25
2023-02-11T00:56:03.536Z,10.00
2023-02-11T00:58:30.390Z,9.57
2023-02-11T01:00:56.981Z,9.80
2023-02-11T01:03:23.923Z,9.38
2023-02-11T01:05:51.093Z,9.70
2023-02-11T01:08:17.830Z,10.00
2023-02-11T01:10:44.299Z,10.10
2023-02-11T01:13:11.173Z,9.98
2023-02-11T01:15:37.797Z,8.95
2023-02-11T01:18:05.402Z,8.93
2023-02-11T01:20:32.001Z,9.23
2023-02-11T01:22:58.480Z,9.50
2023-02-11T01:25:24.972Z,9.45
2023-02-11T01:27:51.491Z,9.50
2023-02-11T01:30:18.073Z,8.88
2023-02-11T01:32:44.594Z,9.48
2023-02-11T01:35:11.164Z,8.73
2023-02-11T01:37:37.692Z,9.65
2023-02-11T01:40:07.735Z,9.48
2023-02-11T01:42:34.348Z,9.27
2023-02-11T01:45:21.665Z,10.20
2023-02-11T01:47:48.209Z,7.50
2023-02-11T01:50:14.762Z,8.75
2023-02-11T01:52:42.611Z,9.10
2023-02-11T01:55:30.869Z,9.38
2023-02-11T01:58:02.892Z,8.70
2023-02-11T02:00:36.345Z,9.05
2023-02-11T02:03:18.048Z,9.48
2023-02-11T02:05:54.316Z,9.15
2023-02-11T02:08:53.281Z,7.90
2023-02-11T02:11:19.870Z,8.68
2023-02-11T02:13:46.646Z,8.85
2023-02-11T02:16:16.800Z,9.20
2023-02-11T02:19:04.966Z,8.35
2023-02-11T02:22:10.479Z,9.73
2023-02-11T02:24:59.981Z,7.82
2023-02-11T02:27:47.454Z,9.05
2023-02-11T02:30:41.766Z,9.23
2023-02-11T02:33:22.383Z,9.13
2023-02-11T02:36:04.322Z,8.75
2023-02-11T02:38:33.144Z,9.85
2023-02-11T02:41:12.995Z,9.07
2023-02-11T02:43:45.412Z,8.13
2023-02-11T02:46:16.980Z,8.70
2023-02-11T02:48:44.128Z,9.48
2023-02-11T02:51:19.605Z,6.80
2023-02-11T02:56:20.740Z,7.95
2023-02-11T02:59:05.581Z,8.25
2023-02-11T03:01:56.153Z,5.78
2023-02-11T03:04:37.139Z,8.70
2023-02-11T03:07:17.091Z,8.07
2023-02-11T03:09:57.667Z,8.25
2023-02-11T03:12:25.483Z,7.30
2023-02-11T03:14:52.742Z,8.10
2023-02-11T03:17:19.756Z,7.43
2023-02-11T03:19:50.597Z,7.82
2023-02-11T03:22:30.653Z,7.97
2023-02-11T03:24:57.232Z,7.68
2023-02-11T03:27:35.728Z,6.88
2023-02-11T03:30:26.469Z,6.35
2023-02-11T03:33:01.301Z,7.15
2023-02-11T03:35:35.390Z,8.05
2023-02-11T03:38:13.228Z,7.72
2023-02-11T03:40:43.633Z,7.05
2023-02-11T03:43:32.110Z,7.97
2023-02-11T03:46:00.308Z,6.18
2023-02-11T03:48:49.650Z,7.65
2023-02-11T03:51:16.336Z,7.40
2023-02-11T03:53:46.548Z,5.07
2023-02-11T03:56:18.229Z,7.75
2023-02-11T03:58:46.051Z,7.43
2023-02-11T04:01:12.660Z,8.80
2023-02-11T04:03:39.236Z,7.28
2023-02-11T04:06:06.090Z,7.38
2023-02-11T04:08:32.904Z,7.15
2023-02-11T04:10:59.422Z,8.63
2023-02-11T04:13:26.182Z,8.65
2023-02-11T04:15:52.933Z,7.13
2023-02-11T04:18:21.746Z,7.00
2023-02-11T04:20:50.228Z,4.97
2023-02-11T04:23:16.767Z,7.43
2023-02-11T04:25:43.597Z,4.60
2023-02-11T04:28:10.221Z,6.93
2023-02-11T04:30:36.827Z,6.00
2023-02-11T04:33:03.517Z,5.47
2023-02-11T04:35:30.003Z,6.75
2023-02-11T04:37:56.740Z,7.25
2023-02-11T04:40:23.278Z,7.03
2023-02-11T04:42:49.777Z,6.70
2023-02-11T04:45:16.426Z,7.10
2023-02-11T04:47:43.035Z,7.53
2023-02-11T04:50:09.722Z,7.43
2023-02-11T04:52:36.247Z,8.40
2023-02-11T04:55:02.746Z,8.20
2023-02-11T04:57:29.256Z,8.40
2023-02-11T04:59:55.808Z,8.68
2023-02-11T05:02:22.351Z,9.77
2023-02-11T05:04:48.835Z,8.45
2023-02-11T05:07:15.413Z,7.53
2023-02-11T05:09:41.993Z,9.35
2023-02-11T05:12:08.582Z,8.88
2023-02-11T05:14:35.129Z,8.88
2023-02-11T05:17:01.711Z,8.45
2023-02-11T05:19:28.218Z,8.60
2023-02-11T05:22:02.670Z,7.78
2023-02-11T05:24:32.330Z,8.85
2023-02-11T05:26:59.080Z,9.02
2023-02-11T05:29:25.653Z,8.95
2023-02-11T05:31:52.535Z,9.18
2023-02-11T05:34:19.067Z,8.70
2023-02-11T05:36:45.766Z,8.50
2023-02-11T05:39:12.299Z,8.80
2023-02-11T05:41:38.855Z,8.32
2023-02-11T05:44:05.416Z,8.63
2023-02-11T05:46:32.028Z,9.10
2023-02-11T05:48:58.575Z,7.20
2023-02-11T05:51:25.362Z,8.20
2023-02-11T05:53:53.390Z,7.70
2023-02-11T05:56:20.064Z,8.40
2023-02-11T05:58:46.710Z,7.85
2023-02-11T06:01:13.228Z,8.10
2023-02-11T06:03:39.832Z,8.13
2023-02-11T06:06:11.839Z,8.65
2023-02-11T06:08:39.394Z,7.90
2023-02-11T06:11:06.355Z,7.93
2023-02-11T06:13:33.036Z,6.90
2023-02-11T06:16:01.128Z,7.30
2023-02-11T06:18:28.317Z,7.40
2023-02-11T06:20:55.050Z,8.18
2023-02-11T06:23:22.346Z,8.07
2023-02-11T06:25:49.656Z,8.05
2023-02-11T06:28:16.486Z,7.68
2023-02-11T06:30:43.096Z,8.90
2023-02-11T06:33:09.727Z,8.35
2023-02-11T06:35:39.410Z,8.10
2023-02-11T06:38:05.906Z,7.97
2023-02-11T06:40:32.404Z,9.68
2023-02-11T06:42:58.933Z,8.70
2023-02-11T06:45:25.493Z,8.52
2023-02-11T06:47:52.898Z,8.85
2023-02-11T06:50:19.445Z,8.35
2023-02-11T06:52:46.169Z,8.50
2023-02-11T06:55:12.717Z,8.75
2023-02-11T06:57:39.386Z,8.50
2023-02-11T07:00:06.735Z,8.70
2023-02-11T07:02:33.352Z,8.88
2023-02-11T07:04:59.951Z,8.77
2023-02-11T07:07:27.587Z,8.48
2023-02-11T07:09:54.139Z,8.60
2023-02-11T07:12:21.816Z,7.07
2023-02-11T07:14:48.342Z,8.57
2023-02-11T07:17:15.115Z,9.68
2023-02-11T07:19:41.851Z,9.40
2023-02-11T07:22:08.360Z,9.38
2023-02-11T07:24:34.874Z,8.95
2023-02-11T07:27:01.381Z,8.88
2023-02-11T07:29:27.919Z,8.18
2023-02-11T07:31:54.553Z,9.43
2023-02-11T07:34:21.262Z,8.80
2023-02-11T07:36:49.081Z,10.65
2023-02-11T07:39:15.940Z,9.90
2023-02-11T07:41:43.713Z,9.70
2023-02-11T07:44:10.305Z,9.55
2023-02-11T07:46:36.973Z,8.27
2023-02-11T07:49:03.700Z,7.50
2023-02-11T07:51:31.386Z,8.73
2023-02-11T07:53:59.616Z,8.77
2023-02-11T07:56:26.366Z,9.20
2023-02-11T07:58:53.357Z,8.55
2023-02-11T08:01:24.961Z,7.95
2023-02-11T08:03:52.506Z,9.38
2023-02-11T08:06:20.395Z,9.70
2023-02-11T08:08:47.398Z,9.43
2023-02-11T08:11:20.241Z,8.82
2023-02-11T08:13:47.026Z,8.68
2023-02-11T08:16:25.694Z,8.68
2023-02-11T08:18:53.276Z,8.38
2023-02-11T08:21:20.576Z,9.57
2023-02-11T08:23:47.737Z,9.75
2023-02-11T08:26:18.178Z,9.60
2023-02-11T08:28:46.677Z,11.07
2023-02-11T08:31:17.346Z,10.10
2023-02-11T08:33:44.588Z,9.27
2023-02-11T08:36:19.010Z,9.02
2023-02-11T08:38:46.645Z,9.43
2023-02-11T08:41:17.241Z,8.85
2023-02-11T08:43:45.004Z,10.55
2023-02-11T08:46:17.569Z,10.50
2023-02-11T08:48:45.531Z,9.02
2023-02-11T08:51:17.044Z,10.35
2023-02-11T08:53:43.966Z,11.30
2023-02-11T08:56:13.403Z,10.23
2023-02-11T08:58:40.706Z,10.75
2023-02-11T09:01:15.178Z,10.57
2023-02-11T09:03:41.676Z,10.50
2023-02-11T09:06:10.572Z,10.18
2023-02-11T09:08:39.142Z,11.70
2023-02-11T09:11:06.017Z,9.63
2023-02-11T09:13:33.757Z,11.13
2023-02-11T09:16:01.904Z,11.10
2023-02-11T09:18:28.604Z,10.48
2023-02-11T09:21:03.918Z,11.65
2023-02-11T09:23:30.954Z,11.32
2023-02-11T09:25:57.451Z,12.52
2023-02-11T09:28:24.165Z,10.80
2023-02-11T09:30:51.140Z,10.90
2023-02-11T09:33:17.954Z,7.47
2023-02-11T09:35:44.485Z,11.20
2023-02-11T09:38:11.001Z,11.57
2023-02-11T09:40:43.222Z,11.02
2023-02-11T09:43:19.626Z,11.65
2023-02-11T09:45:46.247Z,11.10
2023-02-11T09:48:20.003Z,12.55
2023-02-11T09:50:54.862Z,11.38
2023-02-11T09:53:35.010Z,9.52
2023-02-11T09:56:12.827Z,9.07
2023-02-11T09:58:42.303Z,12.43
2023-02-11T10:01:34.821Z,11.82
2023-02-11T10:04:10.162Z,10.82
2023-02-11T10:09:50.017Z,10.48
2023-02-11T10:12:47.456Z,9.50
2023-02-11T10:15:51.006Z,9.73
2023-02-11T10:18:55.297Z,10.50
2023-02-11T10:21:51.543Z,10.25
2023-02-11T10:24:19.070Z,11.10
2023-02-11T10:26:46.644Z,11.40
2023-02-11T10:29:35.688Z,11.23
2023-02-11T10:32:07.447Z,10.40
2023-02-11T10:34:44.079Z,10.70
2023-02-11T10:37:13.789Z,11.98
2023-02-11T10:39:40.938Z,9.68
2023-02-11T10:42:12.245Z,11.20
2023-02-11T10:44:43.754Z,10.65
2023-02-11T10:47:20.668Z,11.38
2023-02-11T10:49:48.100Z,11.40
2023-02-11T10:52:17.618Z,11.30
2023-02-11T10:55:21.494Z,9.93
2023-02-11T10:57:56.377Z,11.35
2023-02-11T11:00:43.272Z,12.07
2023-02-11T11:03:20.713Z,12.35
2023-02-11T11:05:52.725Z,12.35
2023-02-11T11:08:19.907Z,12.77
2023-02-11T11:11:03.927Z,13.02
2023-02-11T11:13:36.339Z,11.27
2023-02-11T11:16:29.816Z,12.23
2023-02-11T11:19:08.364Z,13.18
2023-02-11T11:21:42.331Z,9.63
2023-02-11T11:24:33.498Z,11.60
2023-02-11T11:27:02.892Z,11.63
2023-02-11T11:29:40.443Z,11.95
2023-02-11T11:32:21.448Z,12.88
2023-02-11T11:34:55.673Z,11.05
2023-02-11T11:37:31.018Z,12.30
2023-02-11T11:42:29.529Z,13.00
2023-02-11T11:45:15.123Z,11.43
2023-02-11T11:48:24.027Z,12.25
2023-02-11T11:50:58.454Z,12.60
2023-02-11T11:53:31.004Z,12.88
2023-02-11T11:56:21.746Z,12.32
2023-02-11T11:58:49.841Z,10.88
2023-02-11T12:02:08.525Z,13.25
2023-02-11T12:04:47.393Z,12.95
2023-02-11T12:07:31.861Z,12.05
2023-02-11T12:10:18.252Z,11.57
2023-02-11T12:12:50.523Z,12.85
2023-02-11T12:15:39.309Z,11.13
2023-02-11T12:18:25.816Z,11.80
2023-02-11T12:20:52.742Z,13.18
2023-02-11T12:23:53.422Z,13.32
2023-02-11T12:26:23.374Z,11.20
2023-02-11T12:29:05.119Z,11.45
2023-02-11T12:31:44.283Z,13.52
2023-02-11T12:34:26.280Z,11.00
2023-02-11T12:37:14.246Z,12.23
2023-02-11T12:39:51.073Z,12.00
2023-02-11T12:42:48.311Z,13.75
2023-02-11T12:45:27.516Z,14.07
2023-02-11T12:47:56.941Z,13.45
2023-02-11T12:50:35.464Z,12.45
2023-02-11T12:53:33.119Z,11.25
2023-02-11T12:56:12.881Z,12.27
2023-02-11T12:58:45.263Z,12.70
2023-02-11T13:01:35.817Z,13.77
2023-02-11T13:04:44.714Z,12.68
2023-02-11T13:07:42.158Z,14.15
2023-02-11T13:10:34.064Z,12.15
2023-02-11T13:13:17.829Z,13.52
2023-02-11T13:15:54.173Z,12.15
2023-02-11T13:18:38.992Z,13.60
2023-02-11T13:21:26.819Z,13.20
2023-02-11T13:24:02.781Z,13.45
2023-02-11T13:26:32.419Z,12.50
2023-02-11T13:29:16.990Z,15.45
2023-02-11T13:31:53.412Z,13.77
2023-02-11T13:34:25.223Z,12.95
2023-02-11T13:36:57.261Z,13.48
2023-02-11T13:39:24.479Z,13.10
2023-02-11T13:41:52.900Z,10.43
2023-02-11T13:44:24.149Z,14.77
2023-02-11T13:46:50.817Z,13.93
2023-02-11T13:49:42.607Z,15.82
2023-02-11T13:52:23.633Z,14.57
2023-02-11T13:54:52.008Z,15.05
2023-02-11T13:57:23.337Z,12.70
2023-02-11T13:59:52.699Z,13.18
2023-02-11T14:02:52.673Z,13.43
2023-02-11T14:08:28.401Z,14.90
2023-02-11T14:10:59.335Z,14.23
2023-02-11T14:13:33.566Z,14.57
2023-02-11T14:16:16.955Z,13.90
2023-02-11T14:18:50.050Z,13.95
2023-02-11T14:21:23.943Z,13.43
2023-02-11T14:23:54.557Z,14.40
2023-02-11T14:26:21.121Z,13.60
2023-02-11T14:29:29.801Z,14.60
2023-02-11T14:32:25.838Z,15.38
2023-02-11T14:35:12.321Z,14.30
2023-02-11T14:38:02.362Z,13.98
2023-02-11T14:40:33.196Z,13.65
2023-02-11T14:43:24.543Z,14.52
2023-02-11T14:45:55.678Z,13.95
2023-02-11T14:48:29.035Z,15.30
2023-02-11T14:51:03.619Z,13.75
2023-02-11T14:53:32.592Z,14.95
2023-02-11T14:55:59.176Z,15.00
2023-02-11T14:58:33.856Z,15.48
2023-02-11T15:01:06.764Z,14.63
2023-02-11T15:03:42.333Z,14.50
2023-02-11T15:06:21.363Z,14.48
2023-02-11T15:08:53.944Z,14.13
2023-02-11T15:11:23.871Z,14.38
2023-02-11T15:13:53.031Z,15.45
2023-02-11T15:16:24.143Z,13.80
2023-02-11T15:19:00.739Z,15.57
2023-02-11T15:21:31.386Z,13.15
2023-02-11T15:24:05.924Z,14.18
2023-02-11T15:26:33.630Z,13.80
2023-02-11T15:29:00.239Z,14.35
2023-02-11T15:31:27.987Z,14.45
2023-02-11T15:33:55.200Z,14.70
2023-02-11T15:36:28.553Z,15.02
2023-02-11T15:39:17.347Z,13.52
2023-02-11T15:41:44.521Z,14.30
2023-02-11T15:44:38.295Z,12.98
2023-02-11T15:47:10.291Z,14.20
2023-02-11T15:49:36.903Z,13.98
2023-02-11T15:52:04.376Z,12.77
2023-02-11T15:54:32.560Z,13.95
2023-02-11T15:57:07.703Z,13.13
2023-02-11T15:59:38.843Z,13.65
2023-02-11T16:02:16.833Z,12.68
2023-02-11T16:05:09.526Z,15.45
2023-02-11T16:07:49.850Z,12.95
2023-02-11T16:10:22.509Z,14.65
2023-02-11T16:13:07.489Z,14.15
2023-02-11T16:15:35.468Z,15.18
2023-02-11T16:18:06.095Z,14.73
2023-02-11T16:20:32.596Z,13.77
2023-02-11T16:23:06.710Z,15.25
2023-02-11T16:25:35.497Z,14.27
2023-02-11T16:28:02.336Z,14.10
2023-02-11T16:30:37.669Z,14.90
2023-02-11T16:35:32.809Z,13.05
2023-02-11T16:37:59.281Z,16.58
2023-02-11T16:40:25.923Z,13.45
2023-02-11T16:42:53.588Z,15.60
2023-02-11T16:45:20.272Z,15.75
2023-02-11T16:47:47.016Z,14.68
2023-02-11T16:50:22.530Z,14.77
2023-02-11T16:52:49.361Z,15.23
2023-02-11T16:55:16.210Z,16.13
2023-02-11T16:57:42.790Z,17.58
2023-02-11T17:00:10.393Z,16.90
2023-02-11T17:02:38.419Z,15.80
2023-02-11T17:05:07.996Z,16.75
2023-02-11T17:07:34.576Z,14.85
2023-02-11T17:10:01.048Z,17.13
2023-02-11T17:12:27.671Z,16.20
2023-02-11T17:14:54.662Z,16.85
2023-02-11T17:17:23.594Z,14.77
2023-02-11T17:19:51.122Z,15.48
2023-02-11T17:22:18.503Z,15.07
2023-02-11T17:24:45.099Z,16.17
2023-02-11T17:27:12.090Z,17.10
2023-02-11T17:29:38.611Z,17.17
2023-02-11T17:32:05.271Z,16.70
2023-02-11T17:34:32.461Z,15.75
2023-02-11T17:37:00.173Z,16.63
2023-02-11T17:39:27.575Z,18.45
2023-02-11T17:41:54.300Z,17.52
2023-02-11T17:44:21.069Z,15.77
2023-02-11T17:46:47.656Z,16.23
2023-02-11T17:49:14.433Z,15.73
2023-02-11T17:51:41.045Z,16.42
2023-02-11T17:54:13.759Z,17.10
2023-02-11T17:56:41.168Z,16.80
2023-02-11T17:59:09.357Z,15.68
2023-02-11T18:01:37.660Z,15.98
2023-02-11T18:04:05.524Z,14.25
2023-02-11T18:06:33.838Z,14.32
2023-02-11T18:09:02.418Z,18.30
2023-02-11T18:11:30.493Z,16.10
2023-02-11T18:13:59.875Z,17.52
2023-02-11T18:16:28.729Z,16.80
2023-02-11T18:18:57.474Z,15.85
2023-02-11T18:21:24.914Z,16.38
2023-02-11T18:23:52.347Z,15.77
2023-02-11T18:26:21.159Z,15.57
2023-02-11T18:28:48.191Z,14.27
2023-02-11T18:31:15.033Z,16.25
2023-02-11T18:33:42.869Z,16.73
2023-02-11T18:36:13.754Z,16.10
2023-02-11T18:38:41.495Z,15.85
2023-02-11T18:41:08.333Z,17.30
2023-02-11T18:43:35.339Z,15.07
2023-02-11T18:46:06.278Z,16.42
2023-02-11T18:48:33.005Z,16.02
2023-02-11T18:50:59.559Z,16.13
2023-02-11T18:53:26.471Z,16.50
2023-02-11T18:55:54.155Z,17.20
2023-02-11T18:58:23.986Z,16.02
2023-02-11T19:00:50.632Z,16.98
2023-02-11T19:03:17.360Z,18.42
2023-02-11T19:05:46.387Z,17.92
2023-02-11T19:08:13.515Z,19.05
2023-02-11T19:10:45.465Z,17.90
2023-02-11T19:13:12.886Z,17.40
2023-02-11T19:15:45.030Z,18.27
2023-02-11T19:18:13.024Z,16.85
2023-02-11T19:20:41.661Z,17.15
2023-02-11T19:23:08.766Z,17.42
2023-02-11T19:25:35.299Z,17.10
2023-02-11T19:28:02.621Z,17.40
2023-02-11T19:30:29.626Z,17.38
2023-02-11T19:32:57.634Z,17.35
2023-02-11T19:35:25.284Z,17.05
2023-02-11T19:37:53.944Z,16.20
2023-02-11T19:40:21.328Z,19.25
2023-02-11T19:42:48.231Z,17.25
2023-02-11T19:45:14.966Z,17.27
2023-02-11T19:47:41.561Z,19.33
2023-02-11T19:50:08.842Z,20.30
2023-02-11T19:52:38.409Z,19.63
2023-02-11T19:55:05.404Z,20.10
2023-02-11T19:57:32.066Z,17.27
2023-02-11T19:59:58.851Z,19.00
2023-02-11T20:02:25.578Z,17.98
2023-02-11T20:04:52.319Z,19.75
2023-02-11T20:07:18.903Z,19.33
2023-02-11T20:09:45.457Z,17.92
2023-02-11T20:12:12.114Z,17.90
2023-02-11T20:14:38.817Z,19.73
2023-02-11T20:17:05.452Z,20.80
2023-02-11T20:19:32.088Z,17.33
2023-02-11T20:21:58.821Z,19.45
2023-02-11T20:24:26.006Z,21.10
2023-02-11T20:26:55.908Z,20.92
2023-02-11T20:29:24.053Z,19.25
2023-02-11T20:31:51.076Z,19.35
2023-02-11T20:34:18.258Z,20.20
2023-02-11T20:36:51.727Z,19.52
2023-02-11T20:39:21.858Z,17.63
2023-02-11T20:41:49.034Z,19.35
2023-02-11T20:44:15.785Z,18.08
2023-02-11T20:46:47.735Z,18.20
2023-02-11T20:49:18.755Z,19.00
2023-02-11T20:51:45.589Z,21.95
2023-02-11T20:54:15.354Z,18.70
2023-02-11T20:56:42.068Z,21.83
2023-02-11T20:59:08.964Z,18.80
2023-02-11T21:01:41.370Z,19.40
2023-02-11T21:04:12.892Z,18.42
2023-02-11T21:06:49.806Z,19.70
2023-02-11T21:09:19.949Z,18.92
2023-02-11T21:11:47.053Z,17.95
